This is the latest recevied weather packets stored in our database for station/object N1OTX. If no packets are shown the sender has not sent any weather packets the latest 10 day(s).
| Time | Temp. | Humidity | Pressure | Rain* | Wind** | Luminosity | Snow |
|---|---|---|---|---|---|---|---|
| 1777888850 | 6.67° C | 69% | 1010.6 hPa | 0 mm | - | 10 W/m² | - |
| 1777887930 | 6.67° C | 68% | 1010.5 hPa | 0 mm | - | 4 W/m² | - |
| 1777887031 | 6.67° C | 71% | 1010.5 hPa | 0 mm | - | 0 W/m² | - |
| 1777883150 | 6.67° C | 71% | 1010.5 hPa | 0 mm | - | 0 W/m² | - |
| 1777878331 | 6.11° C | 67% | 1010.4 hPa | 0 mm | - | 0 W/m² | - |
| 1777878071 | 6.11° C | 69% | 1010.4 hPa | 0 mm | - | 0 W/m² | - |
| 1777875329 | 5.56° C | 70% | 1010.4 hPa | 0 mm | - | 0 W/m² | - |
| 1777874151 | 4.44° C | 74% | 1010.4 hPa | 0 mm | - | 0 W/m² | - |
| 1777873531 | 4.44° C | 75% | 1010.4 hPa | 0 mm | - | 0 W/m² | - |
| 1777872932 | 3.89° C | 76% | 1010.5 hPa | 0 mm | - | 0 W/m² | - |
| 1777872630 | 3.33° C | 76% | 1010.4 hPa | 0 mm | - | 0 W/m² | - |
| 1777870251 | 2.22° C | 78% | 1010.5 hPa | 0 mm | - | 0 W/m² | - |
| 1777868452 | 1.67° C | 82% | 1010.4 hPa | 0 mm | - | 0 W/m² | - |
| 1777867530 | 1.67° C | 83% | 1010.2 hPa | 0 mm | - | 0 W/m² | - |
| 1777866331 | 1.67° C | 84% | 1010 hPa | 0 mm | - | 0 W/m² | - |
| 1777865731 | 1.67° C | 82% | 1010.1 hPa | 0 mm | - | 0 W/m² | - |
| 1777863930 | 2.22° C | 82% | 1010 hPa | 0 mm | - | 0 W/m² | - |
| 1777860930 | 3.33° C | 76% | 1009.9 hPa | 0 mm | - | 0 W/m² | - |
| 1777857930 | 5° C | 67% | 1009.6 hPa | 0 mm | - | 0 W/m² | - |
| 1777856730 | 5.56° C | 64% | 1009.3 hPa | 0 mm | - | 0 W/m² | - |
| 1777855829 | 6.11° C | 59% | 1009.1 hPa | 0 mm | - | 0 W/m² | - |
| 1777853730 | 8.33° C | 49% | 1008.7 hPa | 0 mm | - | 0 W/m² | - |
| 1777851629 | 10.56° C | 37% | 1008.4 hPa | 0 mm | - | 6 W/m² | - |
| 1777848030 | 11.11° C | 36% | 1007.6 hPa | 0 mm | - | 42 W/m² | - |
| 1777847131 | 11.11° C | 36% | 1007.3 hPa | 0 mm | - | 58 W/m² | - |
* Rain latest hour (hover to see other rain measurements)
** Current wind speed in m/s (hover to see current wind gust speed)